Aviation Digital Data Service (ADDS)

Output produced by METARs form (2338 UTC 25 June 2019)
found at http://aviationweather.gov/metar/data/
 
KLFK 252320Z 2600/2624 16010KT P6SM VCTS SCT035CB BKN250 
     TEMPO 2600/2601 -TSRA 
     FM260200 16004KT P6SM BKN250 
     FM261200 14003KT P6SM BKN025 
     FM261400 13008KT P6SM OVC050